Time,TemperatureF,DewpointF,PressureIn,WindDirection,WindDirectionDegrees,WindSpeedMPH,WindSpeedGustMPH,Humidity,HourlyPrecipIn,Conditions,Clouds,dailyrainin,SoftwareType,DateUTC
2013-05-21 00:00:00,46.0,-99.9,29.98,NE,35,8.0,10.0,-999,-99.99,,,-99.99,,2013-05-21 04:00:00,
2013-05-21 00:42:00,46.0,-99.9,29.98,NE,35,8.0,10.0,-999,-99.99,,,-99.99,,2013-05-21 04:42:00,
2013-05-21 00:53:00,46.0,-99.9,29.98,NE,35,8.0,10.0,-999,-99.99,,,-99.99,,2013-05-21 04:53:00,
2013-05-21 01:00:00,46.0,-99.9,29.99,NE,39,6.0,8.0,-999,-99.99,,,-99.99,,2013-05-21 05:00:00,
2013-05-21 01:43:00,46.0,-99.9,29.99,NE,39,6.0,8.0,-999,-99.99,,,-99.99,,2013-05-21 05:43:00,
2013-05-21 01:52:00,46.0,-99.9,29.99,NE,39,6.0,8.0,-999,-99.99,,,-99.99,,2013-05-21 05:52:00,
2013-05-21 02:00:00,46.0,-99.9,29.98,NE,49,6.0,6.0,-999,-99.99,,,-99.99,,2013-05-21 06:00:00,
2013-05-21 02:42:00,46.0,-99.9,29.98,NE,49,6.0,6.0,-999,-99.99,,,-99.99,,2013-05-21 06:42:00,
2013-05-21 02:52:00,46.0,-99.9,29.98,NE,49,6.0,6.0,-999,-99.99,,,-99.99,,2013-05-21 06:52:00,
2013-05-21 03:00:00,46.0,-99.9,29.98,ENE,58,5.0,7.0,-999,-99.99,,,-99.99,,2013-05-21 07:00:00,
2013-05-21 03:42:00,46.0,-99.9,29.98,ENE,58,5.0,7.0,-999,-99.99,,,-99.99,,2013-05-21 07:42:00,
2013-05-21 03:52:00,46.0,-99.9,29.98,ENE,58,5.0,7.0,-999,-99.99,,,-99.99,,2013-05-21 07:52:00,
2013-05-21 04:00:00,46.0,-99.9,29.98,East,99,3.0,4.0,-999,-99.99,,,-99.99,,2013-05-21 08:00:00,
2013-05-21 04:42:00,46.0,-99.9,29.98,East,99,3.0,4.0,-999,-99.99,,,-99.99,,2013-05-21 08:42:00,
2013-05-21 04:52:00,46.0,-99.9,29.98,East,99,3.0,4.0,-999,-99.99,,,-99.99,,2013-05-21 08:52:00,
2013-05-21 05:00:00,46.0,-99.9,29.97,East,100,7.0,8.0,-999,-99.99,,,-99.99,,2013-05-21 09:00:00,
2013-05-21 05:42:00,46.0,-99.9,29.97,East,100,7.0,8.0,-999,-99.99,,,-99.99,,2013-05-21 09:42:00,
2013-05-21 05:53:00,46.0,-99.9,29.97,East,100,7.0,8.0,-999,-99.99,,,-99.99,,2013-05-21 09:53:00,
2013-05-21 06:00:00,46.0,-99.9,29.98,ESE,121,6.0,8.0,-999,-99.99,,,-99.99,,2013-05-21 10:00:00,
2013-05-21 06:42:00,46.0,-99.9,29.98,ESE,121,6.0,8.0,-999,-99.99,,,-99.99,,2013-05-21 10:42:00,
2013-05-21 06:53:00,46.0,-99.9,29.98,ESE,121,6.0,8.0,-999,-99.99,,,-99.99,,2013-05-21 10:53:00,
2013-05-21 07:00:00,46.0,-99.9,29.99,SE,137,6.0,7.0,-999,-99.99,,,-99.99,,2013-05-21 11:00:00,
2013-05-21 07:42:00,46.0,-99.9,29.99,SE,137,6.0,7.0,-999,-99.99,,,-99.99,,2013-05-21 11:42:00,
2013-05-21 07:52:00,46.0,-99.9,29.99,SE,137,6.0,7.0,-999,-99.99,,,-99.99,,2013-05-21 11:52:00,
2013-05-21 08:00:00,46.0,-99.9,29.98,ESE,109,8.0,11.0,-999,-99.99,,,-99.99,,2013-05-21 12:00:00,
2013-05-21 08:42:00,46.0,-99.9,29.98,ESE,109,8.0,11.0,-999,-99.99,,,-99.99,,2013-05-21 12:42:00,
2013-05-21 08:52:00,46.0,-99.9,29.98,ESE,109,8.0,11.0,-999,-99.99,,,-99.99,,2013-05-21 12:52:00,
2013-05-21 09:00:00,46.0,-99.9,30.00,SE,135,5.0,7.0,-999,-99.99,,,-99.99,,2013-05-21 13:00:00,
2013-05-21 09:42:00,46.0,-99.9,30.00,SE,135,5.0,7.0,-999,-99.99,,,-99.99,,2013-05-21 13:42:00,
2013-05-21 09:52:00,46.0,-99.9,30.00,SE,135,5.0,7.0,-999,-99.99,,,-99.99,,2013-05-21 13:52:00,
2013-05-21 10:00:00,46.0,-99.9,29.98,East,81,9.0,10.0,-999,-99.99,,,-99.99,,2013-05-21 14:00:00,
2013-05-21 10:42:00,46.0,-99.9,29.98,East,81,9.0,10.0,-999,-99.99,,,-99.99,,2013-05-21 14:42:00,
2013-05-21 10:52:00,46.0,-99.9,29.98,East,81,9.0,10.0,-999,-99.99,,,-99.99,,2013-05-21 14:52:00,
2013-05-21 11:00:00,46.0,-99.9,30.01,ESE,108,7.0,9.0,-999,-99.99,,,-99.99,,2013-05-21 15:00:00,
2013-05-21 11:42:00,46.0,-99.9,30.01,ESE,108,7.0,9.0,-999,-99.99,,,-99.99,,2013-05-21 15:42:00,
2013-05-21 11:53:00,46.0,-99.9,30.01,ESE,108,7.0,9.0,-999,-99.99,,,-99.99,,2013-05-21 15:53:00,
2013-05-21 12:00:00,46.0,-99.9,30.02,ENE,73,6.0,7.0,-999,-99.99,,,-99.99,,2013-05-21 16:00:00,
2013-05-21 12:42:00,46.0,-99.9,30.02,ENE,73,6.0,7.0,-999,-99.99,,,-99.99,,2013-05-21 16:42:00,
2013-05-21 12:53:00,46.0,-99.9,30.02,ENE,73,6.0,7.0,-999,-99.99,,,-99.99,,2013-05-21 16:53:00,
2013-05-21 13:00:00,45.0,-99.9,30.03,NE,52,9.0,10.0,-999,-99.99,,,-99.99,,2013-05-21 17:00:00,
2013-05-21 13:44:00,45.0,-99.9,30.03,NE,52,9.0,10.0,-999,-99.99,,,-99.99,,2013-05-21 17:44:00,
2013-05-21 13:53:00,45.0,-99.9,30.03,NE,52,9.0,10.0,-999,-99.99,,,-99.99,,2013-05-21 17:53:00,
2013-05-21 14:00:00,46.0,-99.9,30.01,ENE,77,12.0,16.0,-999,-99.99,,,-99.99,,2013-05-21 18:00:00,
2013-05-21 14:42:00,46.0,-99.9,30.01,ENE,77,12.0,16.0,-999,-99.99,,,-99.99,,2013-05-21 18:42:00,
2013-05-21 14:52:00,46.0,-99.9,30.01,ENE,77,12.0,16.0,-999,-99.99,,,-99.99,,2013-05-21 18:52:00,
2013-05-21 15:00:00,45.0,-99.9,30.01,ENE,63,14.0,16.0,-999,-99.99,,,-99.99,,2013-05-21 19:00:00,
2013-05-21 15:42:00,45.0,-99.9,30.01,ENE,63,14.0,16.0,-999,-99.99,,,-99.99,,2013-05-21 19:42:00,
2013-05-21 15:52:00,45.0,-99.9,30.01,ENE,63,14.0,16.0,-999,-99.99,,,-99.99,,2013-05-21 19:52:00,
2013-05-21 17:00:00,46.0,-99.9,30.00,East,87,10.0,12.0,-999,-99.99,,,-99.99,,2013-05-21 21:00:00,
2013-05-21 17:44:00,46.0,-99.9,30.00,East,87,10.0,12.0,-999,-99.99,,,-99.99,,2013-05-21 21:44:00,
2013-05-21 17:54:00,46.0,-99.9,30.00,East,87,10.0,12.0,-999,-99.99,,,-99.99,,2013-05-21 21:54:00,
2013-05-21 18:00:00,46.0,-99.9,30.00,ENE,76,8.0,10.0,-999,-99.99,,,-99.99,,2013-05-21 22:00:00,
2013-05-21 18:42:00,46.0,-99.9,30.00,ENE,76,8.0,10.0,-999,-99.99,,,-99.99,,2013-05-21 22:42:00,
2013-05-21 18:53:00,46.0,-99.9,30.00,ENE,76,8.0,10.0,-999,-99.99,,,-99.99,,2013-05-21 22:53:00,
2013-05-21 19:00:00,46.0,-99.9,30.01,SE,133,8.0,10.0,-999,-99.99,,,-99.99,,2013-05-21 23:00:00,
2013-05-21 19:42:00,46.0,-99.9,30.01,SE,133,8.0,10.0,-999,-99.99,,,-99.99,,2013-05-21 23:42:00,
2013-05-21 19:52:00,46.0,-99.9,30.01,SE,133,8.0,10.0,-999,-99.99,,,-99.99,,2013-05-21 23:52:00,
2013-05-21 20:30:00,47.0,-99.9,30.03,NE,51,11.0,23.0,-999,-99.99,,,-99.99,,2013-05-22 00:30:00,
2013-05-21 20:42:00,47.0,-99.9,30.00,SSE,156,10.0,13.0,-999,-99.99,,,-99.99,,2013-05-22 00:42:00,
2013-05-21 20:52:00,47.0,-99.9,30.00,SSE,156,10.0,13.0,-999,-99.99,,,-99.99,,2013-05-22 00:52:00,
2013-05-21 21:00:00,47.0,-99.9,30.03,ENE,62,7.0,10.0,-999,-99.99,,,-99.99,,2013-05-22 01:00:00,
2013-05-21 21:01:00,47.0,-99.9,30.03,NE,51,11.0,23.0,-999,-99.99,,,-99.99,,2013-05-22 01:01:00,
2013-05-21 21:11:00,47.0,-99.9,30.03,NE,51,11.0,23.0,-999,-99.99,,,-99.99,,2013-05-22 01:11:00,
2013-05-21 21:22:00,47.0,-99.9,30.03,NE,51,11.0,23.0,-999,-99.99,,,-99.99,,2013-05-22 01:22:00,
2013-05-21 21:42:00,47.0,-99.9,30.03,ENE,62,7.0,10.0,-999,-99.99,,,-99.99,,2013-05-22 01:42:00,
2013-05-21 21:52:00,47.0,-99.9,30.03,ENE,62,7.0,10.0,-999,-99.99,,,-99.99,,2013-05-22 01:52:00,
2013-05-21 22:00:00,46.0,-99.9,30.03,ENE,76,7.0,8.0,-999,-99.99,,,-99.99,,2013-05-22 02:00:00,
2013-05-21 22:42:00,46.0,-99.9,30.03,ENE,76,7.0,8.0,-999,-99.99,,,-99.99,,2013-05-22 02:42:00,
2013-05-21 22:52:00,46.0,-99.9,30.03,ENE,76,7.0,8.0,-999,-99.99,,,-99.99,,2013-05-22 02:52:00,
2013-05-21 23:00:00,47.0,-99.9,30.01,East,98,9.0,10.0,-999,-99.99,,,-99.99,,2013-05-22 03:00:00,
2013-05-21 23:43:00,47.0,-99.9,30.01,East,98,9.0,10.0,-999,-99.99,,,-99.99,,2013-05-22 03:43:00,
2013-05-21 23:53:00,47.0,-99.9,30.01,East,98,9.0,10.0,-999,-99.99,,,-99.99,,2013-05-22 03:53:00,